sensor_id;sensor_type;location;lat;lon;timestamp;temperature;humidity
76172;DHT22;64929;51.178;4.138;2023-04-01T00:01:54;10.70;93.30
76172;DHT22;64929;51.178;4.138;2023-04-01T00:04:19;10.70;93.30
76172;DHT22;64929;51.178;4.138;2023-04-01T00:06:46;10.70;93.20
76172;DHT22;64929;51.178;4.138;2023-04-01T00:09:12;10.70;93.20
76172;DHT22;64929;51.178;4.138;2023-04-01T00:11:38;10.70;93.10
76172;DHT22;64929;51.178;4.138;2023-04-01T00:14:04;10.70;93.20
76172;DHT22;64929;51.178;4.138;2023-04-01T00:16:30;10.70;93.20
76172;DHT22;64929;51.178;4.138;2023-04-01T00:18:55;10.70;92.90
76172;DHT22;64929;51.178;4.138;2023-04-01T00:21:21;10.70;93.20
76172;DHT22;64929;51.178;4.138;2023-04-01T00:23:48;10.60;93.30
76172;DHT22;64929;51.178;4.138;2023-04-01T00:26:14;10.60;93.30
76172;DHT22;64929;51.178;4.138;2023-04-01T00:28:43;10.70;93.30
76172;DHT22;64929;51.178;4.138;2023-04-01T00:31:09;10.70;93.10
76172;DHT22;64929;51.178;4.138;2023-04-01T00:33:35;10.80;92.80
76172;DHT22;64929;51.178;4.138;2023-04-01T00:36:08;10.70;93.00
76172;DHT22;64929;51.178;4.138;2023-04-01T00:38:34;10.80;92.80
76172;DHT22;64929;51.178;4.138;2023-04-01T00:40:59;10.80;92.80
76172;DHT22;64929;51.178;4.138;2023-04-01T00:43:25;10.90;92.50
76172;DHT22;64929;51.178;4.138;2023-04-01T00:45:51;11.00;92.10
76172;DHT22;64929;51.178;4.138;2023-04-01T00:48:21;11.00;92.30
76172;DHT22;64929;51.178;4.138;2023-04-01T00:50:52;11.00;92.20
76172;DHT22;64929;51.178;4.138;2023-04-01T00:53:18;10.90;92.30
76172;DHT22;64929;51.178;4.138;2023-04-01T00:55:56;11.00;92.00
76172;DHT22;64929;51.178;4.138;2023-04-01T00:58:23;11.10;92.00
76172;DHT22;64929;51.178;4.138;2023-04-01T01:00:50;11.10;91.90
76172;DHT22;64929;51.178;4.138;2023-04-01T01:03:16;11.00;91.90
76172;DHT22;64929;51.178;4.138;2023-04-01T01:05:49;11.00;91.90
76172;DHT22;64929;51.178;4.138;2023-04-01T01:08:33;11.00;92.00
76172;DHT22;64929;51.178;4.138;2023-04-01T01:11:03;10.80;92.40
76172;DHT22;64929;51.178;4.138;2023-04-01T01:13:39;10.80;92.20
76172;DHT22;64929;51.178;4.138;2023-04-01T01:16:11;10.80;92.40
76172;DHT22;64929;51.178;4.138;2023-04-01T01:18:42;10.90;91.90
76172;DHT22;64929;51.178;4.138;2023-04-01T01:31:33;10.60;92.30
76172;DHT22;64929;51.178;4.138;2023-04-01T01:34:36;10.60;92.20
76172;DHT22;64929;51.178;4.138;2023-04-01T01:36:55;10.60;92.70
76172;DHT22;64929;51.178;4.138;2023-04-01T01:39:23;10.60;92.80
76172;DHT22;64929;51.178;4.138;2023-04-01T01:41:53;10.80;92.10
76172;DHT22;64929;51.178;4.138;2023-04-01T01:44:20;10.70;92.20
76172;DHT22;64929;51.178;4.138;2023-04-01T01:46:46;10.70;92.40
76172;DHT22;64929;51.178;4.138;2023-04-01T01:49:12;10.70;92.20
76172;DHT22;64929;51.178;4.138;2023-04-01T01:51:40;10.70;92.00
76172;DHT22;64929;51.178;4.138;2023-04-01T01:54:11;10.80;92.00
76172;DHT22;64929;51.178;4.138;2023-04-01T01:56:37;10.60;92.40
76172;DHT22;64929;51.178;4.138;2023-04-01T01:59:04;10.50;92.70
76172;DHT22;64929;51.178;4.138;2023-04-01T02:01:31;10.40;92.90
76172;DHT22;64929;51.178;4.138;2023-04-01T02:03:58;10.40;92.90
76172;DHT22;64929;51.178;4.138;2023-04-01T02:06:25;10.60;92.60
76172;DHT22;64929;51.178;4.138;2023-04-01T02:08:55;10.60;92.50
76172;DHT22;64929;51.178;4.138;2023-04-01T02:11:24;10.60;92.50
76172;DHT22;64929;51.178;4.138;2023-04-01T02:13:54;10.50;92.40
76172;DHT22;64929;51.178;4.138;2023-04-01T02:16:23;10.50;92.50
76172;DHT22;64929;51.178;4.138;2023-04-01T02:18:50;10.50;92.90
76172;DHT22;64929;51.178;4.138;2023-04-01T02:21:18;10.50;92.70
76172;DHT22;64929;51.178;4.138;2023-04-01T02:23:45;10.50;92.80
76172;DHT22;64929;51.178;4.138;2023-04-01T02:26:12;10.60;92.40
76172;DHT22;64929;51.178;4.138;2023-04-01T02:28:38;10.50;92.20
76172;DHT22;64929;51.178;4.138;2023-04-01T02:31:04;10.30;92.70
76172;DHT22;64929;51.178;4.138;2023-04-01T02:33:30;10.10;93.20
76172;DHT22;64929;51.178;4.138;2023-04-01T02:35:56;10.20;93.30
76172;DHT22;64929;51.178;4.138;2023-04-01T02:38:22;10.20;93.10
76172;DHT22;64929;51.178;4.138;2023-04-01T02:40:49;10.20;93.20
76172;DHT22;64929;51.178;4.138;2023-04-01T02:43:15;10.30;92.90
76172;DHT22;64929;51.178;4.138;2023-04-01T02:45:42;10.30;92.90
76172;DHT22;64929;51.178;4.138;2023-04-01T02:48:08;10.20;92.80
76172;DHT22;64929;51.178;4.138;2023-04-01T02:50:33;10.20;93.10
76172;DHT22;64929;51.178;4.138;2023-04-01T02:52:59;10.20;92.70
76172;DHT22;64929;51.178;4.138;2023-04-01T02:55:25;10.20;92.80
76172;DHT22;64929;51.178;4.138;2023-04-01T02:57:51;10.20;92.90
76172;DHT22;64929;51.178;4.138;2023-04-01T03:00:16;10.30;92.60
76172;DHT22;64929;51.178;4.138;2023-04-01T03:02:42;10.20;92.90
76172;DHT22;64929;51.178;4.138;2023-04-01T03:05:09;10.30;93.10
76172;DHT22;64929;51.178;4.138;2023-04-01T03:07:35;10.30;92.60
76172;DHT22;64929;51.178;4.138;2023-04-01T03:10:01;10.20;92.60
76172;DHT22;64929;51.178;4.138;2023-04-01T03:12:26;10.30;92.70
76172;DHT22;64929;51.178;4.138;2023-04-01T03:14:52;10.20;93.00
76172;DHT22;64929;51.178;4.138;2023-04-01T03:17:17;10.10;93.10
76172;DHT22;64929;51.178;4.138;2023-04-01T03:19:43;10.20;93.00
76172;DHT22;64929;51.178;4.138;2023-04-01T03:22:11;10.10;93.00
76172;DHT22;64929;51.178;4.138;2023-04-01T03:24:37;10.00;93.40
76172;DHT22;64929;51.178;4.138;2023-04-01T03:27:02;10.10;93.20
76172;DHT22;64929;51.178;4.138;2023-04-01T03:29:28;10.10;93.20
76172;DHT22;64929;51.178;4.138;2023-04-01T03:31:54;10.10;93.30
76172;DHT22;64929;51.178;4.138;2023-04-01T03:34:23;10.20;93.20
76172;DHT22;64929;51.178;4.138;2023-04-01T03:36:48;10.30;92.90
76172;DHT22;64929;51.178;4.138;2023-04-01T03:39:14;10.30;93.00
76172;DHT22;64929;51.178;4.138;2023-04-01T03:41:44;10.30;92.80
76172;DHT22;64929;51.178;4.138;2023-04-01T03:44:09;10.40;92.40
76172;DHT22;64929;51.178;4.138;2023-04-01T03:46:35;10.20;92.80
76172;DHT22;64929;51.178;4.138;2023-04-01T03:49:01;10.20;93.00
76172;DHT22;64929;51.178;4.138;2023-04-01T03:51:27;10.30;92.90
76172;DHT22;64929;51.178;4.138;2023-04-01T03:53:52;10.30;92.90
76172;DHT22;64929;51.178;4.138;2023-04-01T03:56:18;10.30;92.40
76172;DHT22;64929;51.178;4.138;2023-04-01T03:58:43;10.10;92.90
76172;DHT22;64929;51.178;4.138;2023-04-01T04:01:19;10.10;92.90
76172;DHT22;64929;51.178;4.138;2023-04-01T04:03:46;10.10;92.90
76172;DHT22;64929;51.178;4.138;2023-04-01T04:06:12;10.20;93.00
76172;DHT22;64929;51.178;4.138;2023-04-01T04:08:38;10.20;92.80
76172;DHT22;64929;51.178;4.138;2023-04-01T04:11:03;10.30;92.70
76172;DHT22;64929;51.178;4.138;2023-04-01T04:13:29;10.20;92.60
76172;DHT22;64929;51.178;4.138;2023-04-01T04:15:54;10.20;92.80
76172;DHT22;64929;51.178;4.138;2023-04-01T04:18:20;10.30;92.20
76172;DHT22;64929;51.178;4.138;2023-04-01T04:20:46;10.40;92.00
76172;DHT22;64929;51.178;4.138;2023-04-01T04:23:16;10.40;92.30
76172;DHT22;64929;51.178;4.138;2023-04-01T04:25:52;10.30;91.70
76172;DHT22;64929;51.178;4.138;2023-04-01T04:28:18;10.20;92.40
76172;DHT22;64929;51.178;4.138;2023-04-01T04:30:43;10.20;92.70
76172;DHT22;64929;51.178;4.138;2023-04-01T04:33:09;10.30;92.40
76172;DHT22;64929;51.178;4.138;2023-04-01T04:35:35;10.10;92.80
76172;DHT22;64929;51.178;4.138;2023-04-01T04:38:00;10.00;92.90
76172;DHT22;64929;51.178;4.138;2023-04-01T04:40:26;10.00;92.80
76172;DHT22;64929;51.178;4.138;2023-04-01T04:42:51;9.90;93.00
76172;DHT22;64929;51.178;4.138;2023-04-01T04:45:17;9.90;93.40
76172;DHT22;64929;51.178;4.138;2023-04-01T04:47:42;9.70;93.60
76172;DHT22;64929;51.178;4.138;2023-04-01T04:50:08;9.90;93.70
76172;DHT22;64929;51.178;4.138;2023-04-01T04:52:34;9.90;93.30
76172;DHT22;64929;51.178;4.138;2023-04-01T04:54:59;9.90;93.50
76172;DHT22;64929;51.178;4.138;2023-04-01T04:57:25;9.90;93.20
76172;DHT22;64929;51.178;4.138;2023-04-01T04:59:50;9.80;93.40
76172;DHT22;64929;51.178;4.138;2023-04-01T05:02:16;9.80;93.40
76172;DHT22;64929;51.178;4.138;2023-04-01T05:04:41;9.70;93.50
76172;DHT22;64929;51.178;4.138;2023-04-01T05:07:07;9.70;93.80
76172;DHT22;64929;51.178;4.138;2023-04-01T05:09:33;9.90;93.70
76172;DHT22;64929;51.178;4.138;2023-04-01T05:11:59;10.00;93.20
76172;DHT22;64929;51.178;4.138;2023-04-01T05:14:24;10.10;92.80
76172;DHT22;64929;51.178;4.138;2023-04-01T05:16:50;10.00;92.90
76172;DHT22;64929;51.178;4.138;2023-04-01T05:19:15;10.00;93.20
76172;DHT22;64929;51.178;4.138;2023-04-01T05:21:41;9.90;93.60
76172;DHT22;64929;51.178;4.138;2023-04-01T05:24:07;10.00;93.20
76172;DHT22;64929;51.178;4.138;2023-04-01T05:26:33;10.20;92.80
76172;DHT22;64929;51.178;4.138;2023-04-01T05:28:58;10.00;93.10
76172;DHT22;64929;51.178;4.138;2023-04-01T05:31:24;10.00;93.00
76172;DHT22;64929;51.178;4.138;2023-04-01T05:33:51;9.90;92.90
76172;DHT22;64929;51.178;4.138;2023-04-01T05:36:16;9.90;93.10
76172;DHT22;64929;51.178;4.138;2023-04-01T05:38:42;9.80;93.40
76172;DHT22;64929;51.178;4.138;2023-04-01T05:41:08;9.80;93.40
76172;DHT22;64929;51.178;4.138;2023-04-01T05:43:38;9.80;93.40
76172;DHT22;64929;51.178;4.138;2023-04-01T05:46:03;9.90;93.20
76172;DHT22;64929;51.178;4.138;2023-04-01T05:48:29;9.90;93.30
76172;DHT22;64929;51.178;4.138;2023-04-01T05:50:55;9.70;93.50
76172;DHT22;64929;51.178;4.138;2023-04-01T05:53:20;9.70;93.80
76172;DHT22;64929;51.178;4.138;2023-04-01T05:55:47;9.80;93.30
76172;DHT22;64929;51.178;4.138;2023-04-01T05:58:13;9.80;93.20
76172;DHT22;64929;51.178;4.138;2023-04-01T06:00:38;9.80;93.50
76172;DHT22;64929;51.178;4.138;2023-04-01T06:03:04;9.90;93.10
76172;DHT22;64929;51.178;4.138;2023-04-01T06:05:30;9.90;93.10
76172;DHT22;64929;51.178;4.138;2023-04-01T06:08:05;9.80;93.10
76172;DHT22;64929;51.178;4.138;2023-04-01T06:16:45;9.90;93.00
76172;DHT22;64929;51.178;4.138;2023-04-01T06:18:48;9.90;93.00
76172;DHT22;64929;51.178;4.138;2023-04-01T06:21:29;9.80;93.30
76172;DHT22;64929;51.178;4.138;2023-04-01T06:29:21;9.90;93.10
76172;DHT22;64929;51.178;4.138;2023-04-01T06:37:16;9.80;93.10
76172;DHT22;64929;51.178;4.138;2023-04-01T06:40:06;9.80;93.40
76172;DHT22;64929;51.178;4.138;2023-04-01T06:48:02;9.90;93.30
76172;DHT22;64929;51.178;4.138;2023-04-01T06:50:32;9.80;93.40
76172;DHT22;64929;51.178;4.138;2023-04-01T06:53:09;9.70;93.70
76172;DHT22;64929;51.178;4.138;2023-04-01T06:55:37;9.80;93.60
76172;DHT22;64929;51.178;4.138;2023-04-01T06:58:04;10.00;92.90
76172;DHT22;64929;51.178;4.138;2023-04-01T07:05:34;9.70;93.70
76172;DHT22;64929;51.178;4.138;2023-04-01T07:08:04;9.80;93.40
76172;DHT22;64929;51.178;4.138;2023-04-01T07:13:31;9.90;93.40
76172;DHT22;64929;51.178;4.138;2023-04-01T07:15:56;10.00;93.00
76172;DHT22;64929;51.178;4.138;2023-04-01T07:21:19;9.90;93.70
76172;DHT22;64929;51.178;4.138;2023-04-01T07:23:45;10.10;93.50
76172;DHT22;64929;51.178;4.138;2023-04-01T07:26:17;10.20;93.00
76172;DHT22;64929;51.178;4.138;2023-04-01T07:28:44;10.20;92.80
76172;DHT22;64929;51.178;4.138;2023-04-01T07:33:57;10.20;92.80
76172;DHT22;64929;51.178;4.138;2023-04-01T07:44:31;10.30;92.60
76172;DHT22;64929;51.178;4.138;2023-04-01T07:47:02;10.30;92.60
76172;DHT22;64929;51.178;4.138;2023-04-01T07:52:18;10.20;93.10
76172;DHT22;64929;51.178;4.138;2023-04-01T07:54:49;10.30;92.90
76172;DHT22;64929;51.178;4.138;2023-04-01T07:57:19;10.30;92.80
76172;DHT22;64929;51.178;4.138;2023-04-01T07:59:53;10.40;92.70
76172;DHT22;64929;51.178;4.138;2023-04-01T08:05:27;10.40;92.60
76172;DHT22;64929;51.178;4.138;2023-04-01T08:07:47;10.50;92.50
76172;DHT22;64929;51.178;4.138;2023-04-01T08:10:18;10.70;92.20
76172;DHT22;64929;51.178;4.138;2023-04-01T08:15:13;10.50;92.40
76172;DHT22;64929;51.178;4.138;2023-04-01T08:20:34;10.40;92.90
76172;DHT22;64929;51.178;4.138;2023-04-01T08:25:27;10.60;92.70
76172;DHT22;64929;51.178;4.138;2023-04-01T08:28:03;10.70;91.70
76172;DHT22;64929;51.178;4.138;2023-04-01T08:33:00;10.60;92.40
76172;DHT22;64929;51.178;4.138;2023-04-01T08:36:02;10.60;92.40
76172;DHT22;64929;51.178;4.138;2023-04-01T08:38:20;10.60;92.20
76172;DHT22;64929;51.178;4.138;2023-04-01T08:46:02;10.70;92.20
76172;DHT22;64929;51.178;4.138;2023-04-01T09:03:56;10.50;92.40
76172;DHT22;64929;51.178;4.138;2023-04-01T09:28:14;10.60;92.00
76172;DHT22;64929;51.178;4.138;2023-04-01T09:35:47;10.60;92.20
76172;DHT22;64929;51.178;4.138;2023-04-01T09:38:23;10.70;92.00
76172;DHT22;64929;51.178;4.138;2023-04-01T09:40:57;10.70;91.40
76172;DHT22;64929;51.178;4.138;2023-04-01T10:15:06;10.60;92.20
76172;DHT22;64929;51.178;4.138;2023-04-01T10:36:01;10.60;92.20
76172;DHT22;64929;51.178;4.138;2023-04-01T10:41:04;10.60;91.90
76172;DHT22;64929;51.178;4.138;2023-04-01T10:44:15;10.60;92.00
76172;DHT22;64929;51.178;4.138;2023-04-01T10:52:03;10.50;92.10
76172;DHT22;64929;51.178;4.138;2023-04-01T10:57:40;10.50;91.60
76172;DHT22;64929;51.178;4.138;2023-04-01T11:02:41;10.60;91.90
76172;DHT22;64929;51.178;4.138;2023-04-01T11:16:34;10.70;91.30
76172;DHT22;64929;51.178;4.138;2023-04-01T11:19:01;10.70;91.10
76172;DHT22;64929;51.178;4.138;2023-04-01T11:21:35;10.70;91.60
76172;DHT22;64929;51.178;4.138;2023-04-01T11:29:29;10.70;90.90
76172;DHT22;64929;51.178;4.138;2023-04-01T11:32:23;10.60;90.80
76172;DHT22;64929;51.178;4.138;2023-04-01T11:42:40;10.60;91.10
76172;DHT22;64929;51.178;4.138;2023-04-01T11:47:48;10.70;91.20
76172;DHT22;64929;51.178;4.138;2023-04-01T11:50:26;10.80;90.90
76172;DHT22;64929;51.178;4.138;2023-04-01T11:52:59;10.80;91.00
76172;DHT22;64929;51.178;4.138;2023-04-01T11:55:31;10.70;91.40
76172;DHT22;64929;51.178;4.138;2023-04-01T12:00:43;10.90;92.00
76172;DHT22;64929;51.178;4.138;2023-04-01T12:08:38;10.90;91.40
76172;DHT22;64929;51.178;4.138;2023-04-01T12:13:39;11.00;91.60
76172;DHT22;64929;51.178;4.138;2023-04-01T12:31:53;10.90;92.30
76172;DHT22;64929;51.178;4.138;2023-04-01T13:02:49;10.70;91.70
76172;DHT22;64929;51.178;4.138;2023-04-01T13:05:27;10.70;91.70
76172;DHT22;64929;51.178;4.138;2023-04-01T13:08:03;10.60;91.70
76172;DHT22;64929;51.178;4.138;2023-04-01T13:15:45;10.60;92.00
76172;DHT22;64929;51.178;4.138;2023-04-01T13:20:43;11.00;91.30
76172;DHT22;64929;51.178;4.138;2023-04-01T13:23:13;10.80;91.50
76172;DHT22;64929;51.178;4.138;2023-04-01T13:30:37;10.80;91.10
76172;DHT22;64929;51.178;4.138;2023-04-01T13:38:32;10.80;91.10
76172;DHT22;64929;51.178;4.138;2023-04-01T13:43:49;11.10;90.70
76172;DHT22;64929;51.178;4.138;2023-04-01T13:46:27;11.00;90.90
76172;DHT22;64929;51.178;4.138;2023-04-01T14:01:49;10.70;91.20
76172;DHT22;64929;51.178;4.138;2023-04-01T14:06:49;10.90;90.50
76172;DHT22;64929;51.178;4.138;2023-04-01T14:12:02;10.60;90.80
76172;DHT22;64929;51.178;4.138;2023-04-01T14:19:51;11.00;90.30
76172;DHT22;64929;51.178;4.138;2023-04-01T14:22:35;11.20;90.40
76172;DHT22;64929;51.178;4.138;2023-04-01T14:32:49;11.00;89.70
76172;DHT22;64929;51.178;4.138;2023-04-01T14:35:37;10.90;90.20
76172;DHT22;64929;51.178;4.138;2023-04-01T14:43:21;11.10;90.30
76172;DHT22;64929;51.178;4.138;2023-04-01T14:46:04;10.90;90.20
76172;DHT22;64929;51.178;4.138;2023-04-01T14:48:32;11.10;90.00
76172;DHT22;64929;51.178;4.138;2023-04-01T14:51:41;10.90;90.30
76172;DHT22;64929;51.178;4.138;2023-04-01T14:54:02;10.90;90.00
76172;DHT22;64929;51.178;4.138;2023-04-01T14:56:36;10.80;90.30
76172;DHT22;64929;51.178;4.138;2023-04-01T14:59:06;10.70;90.50
76172;DHT22;64929;51.178;4.138;2023-04-01T15:19:56;10.70;91.50
76172;DHT22;64929;51.178;4.138;2023-04-01T15:25:18;10.70;91.30
76172;DHT22;64929;51.178;4.138;2023-04-01T15:27:50;10.80;91.30
76172;DHT22;64929;51.178;4.138;2023-04-01T15:30:34;10.60;91.50
76172;DHT22;64929;51.178;4.138;2023-04-01T15:51:01;10.30;92.20
76172;DHT22;64929;51.178;4.138;2023-04-01T15:53:30;10.30;92.30
76172;DHT22;64929;51.178;4.138;2023-04-01T15:56:08;10.40;92.20
76172;DHT22;64929;51.178;4.138;2023-04-01T15:58:39;10.40;92.40
76172;DHT22;64929;51.178;4.138;2023-04-01T16:06:24;10.40;91.90
76172;DHT22;64929;51.178;4.138;2023-04-01T16:27:18;10.50;91.70
76172;DHT22;64929;51.178;4.138;2023-04-01T16:29:51;10.40;92.10
76172;DHT22;64929;51.178;4.138;2023-04-01T16:37:20;10.40;92.30
76172;DHT22;64929;51.178;4.138;2023-04-01T16:39:48;10.60;92.00
76172;DHT22;64929;51.178;4.138;2023-04-01T16:47:36;10.30;92.60
76172;DHT22;64929;51.178;4.138;2023-04-01T16:52:57;10.30;93.20
76172;DHT22;64929;51.178;4.138;2023-04-01T16:58:11;10.60;92.70
76172;DHT22;64929;51.178;4.138;2023-04-01T17:00:40;10.70;92.00
76172;DHT22;64929;51.178;4.138;2023-04-01T17:03:14;10.70;91.50
76172;DHT22;64929;51.178;4.138;2023-04-01T17:08:36;10.60;91.80
76172;DHT22;64929;51.178;4.138;2023-04-01T17:11:12;10.50;91.80
76172;DHT22;64929;51.178;4.138;2023-04-01T17:22:00;10.40;92.30
76172;DHT22;64929;51.178;4.138;2023-04-01T17:32:46;10.20;91.80
76172;DHT22;64929;51.178;4.138;2023-04-01T17:35:29;10.10;92.30
76172;DHT22;64929;51.178;4.138;2023-04-01T17:38:06;10.20;92.40
76172;DHT22;64929;51.178;4.138;2023-04-01T17:43:10;10.00;92.50
76172;DHT22;64929;51.178;4.138;2023-04-01T17:50:48;9.90;92.60
76172;DHT22;64929;51.178;4.138;2023-04-01T17:53:38;10.10;92.40
76172;DHT22;64929;51.178;4.138;2023-04-01T17:56:08;10.00;92.20
76172;DHT22;64929;51.178;4.138;2023-04-01T18:22:23;10.10;92.10
76172;DHT22;64929;51.178;4.138;2023-04-01T18:27:24;9.90;92.60
76172;DHT22;64929;51.178;4.138;2023-04-01T18:29:54;10.00;92.60
76172;DHT22;64929;51.178;4.138;2023-04-01T18:37:22;10.20;92.10
76172;DHT22;64929;51.178;4.138;2023-04-01T18:45:14;9.90;92.50
76172;DHT22;64929;51.178;4.138;2023-04-01T18:52:59;10.10;92.40
76172;DHT22;64929;51.178;4.138;2023-04-01T19:03:20;10.20;92.20
76172;DHT22;64929;51.178;4.138;2023-04-01T19:05:47;10.10;92.30
76172;DHT22;64929;51.178;4.138;2023-04-01T19:13:11;10.00;92.70
76172;DHT22;64929;51.178;4.138;2023-04-01T19:20:59;10.30;91.60
76172;DHT22;64929;51.178;4.138;2023-04-01T19:25:55;10.10;92.30
76172;DHT22;64929;51.178;4.138;2023-04-01T19:28:38;10.10;92.30
76172;DHT22;64929;51.178;4.138;2023-04-01T19:41:43;10.20;92.40
76172;DHT22;64929;51.178;4.138;2023-04-01T19:52:14;10.20;92.40
76172;DHT22;64929;51.178;4.138;2023-04-01T20:00:21;10.20;92.70
76172;DHT22;64929;51.178;4.138;2023-04-01T20:05:28;10.40;92.40
76172;DHT22;64929;51.178;4.138;2023-04-01T20:07:58;10.40;92.30
76172;DHT22;64929;51.178;4.138;2023-04-01T20:10:30;10.40;92.50
76172;DHT22;64929;51.178;4.138;2023-04-01T20:15:43;10.60;92.10
76172;DHT22;64929;51.178;4.138;2023-04-01T20:18:14;10.50;92.20
76172;DHT22;64929;51.178;4.138;2023-04-01T20:20:41;10.50;92.40
76172;DHT22;64929;51.178;4.138;2023-04-01T20:23:21;10.50;92.40
76172;DHT22;64929;51.178;4.138;2023-04-01T20:25:53;10.60;92.20
76172;DHT22;64929;51.178;4.138;2023-04-01T20:28:43;10.60;92.10
76172;DHT22;64929;51.178;4.138;2023-04-01T20:46:52;10.60;92.50
76172;DHT22;64929;51.178;4.138;2023-04-01T20:49:25;10.50;92.30
76172;DHT22;64929;51.178;4.138;2023-04-01T20:52:01;10.60;92.50
76172;DHT22;64929;51.178;4.138;2023-04-01T20:54:38;10.60;92.30
76172;DHT22;64929;51.178;4.138;2023-04-01T21:10:01;10.50;92.50
76172;DHT22;64929;51.178;4.138;2023-04-01T21:18:04;10.30;92.90
76172;DHT22;64929;51.178;4.138;2023-04-01T21:21:20;10.40;92.70
76172;DHT22;64929;51.178;4.138;2023-04-01T21:26:00;10.70;92.30
76172;DHT22;64929;51.178;4.138;2023-04-01T21:41:31;10.60;92.30
76172;DHT22;64929;51.178;4.138;2023-04-01T22:07:10;10.50;91.80
76172;DHT22;64929;51.178;4.138;2023-04-01T22:09:45;10.60;91.90
76172;DHT22;64929;51.178;4.138;2023-04-01T22:22:47;10.40;91.90
76172;DHT22;64929;51.178;4.138;2023-04-01T22:25:16;10.60;91.50
76172;DHT22;64929;51.178;4.138;2023-04-01T22:30:10;10.40;91.50
76172;DHT22;64929;51.178;4.138;2023-04-01T22:37:51;10.60;91.20
76172;DHT22;64929;51.178;4.138;2023-04-01T22:42:46;10.40;91.50
76172;DHT22;64929;51.178;4.138;2023-04-01T22:50:10;10.20;91.70
76172;DHT22;64929;51.178;4.138;2023-04-01T22:52:45;10.20;92.00
76172;DHT22;64929;51.178;4.138;2023-04-01T23:05:25;10.40;91.40
76172;DHT22;64929;51.178;4.138;2023-04-01T23:08:24;10.50;91.10
76172;DHT22;64929;51.178;4.138;2023-04-01T23:10:49;10.40;91.00
76172;DHT22;64929;51.178;4.138;2023-04-01T23:13:21;10.40;90.60
76172;DHT22;64929;51.178;4.138;2023-04-01T23:15:47;10.50;90.50
76172;DHT22;64929;51.178;4.138;2023-04-01T23:18:24;10.50;90.30
76172;DHT22;64929;51.178;4.138;2023-04-01T23:25:54;10.10;91.00
76172;DHT22;64929;51.178;4.138;2023-04-01T23:28:42;10.10;91.10
76172;DHT22;64929;51.178;4.138;2023-04-01T23:33:56;10.00;91.50
76172;DHT22;64929;51.178;4.138;2023-04-01T23:36:22;9.90;91.70
76172;DHT22;64929;51.178;4.138;2023-04-01T23:38:48;9.80;91.70
76172;DHT22;64929;51.178;4.138;2023-04-01T23:41:27;9.80;91.90
76172;DHT22;64929;51.178;4.138;2023-04-01T23:46:30;9.70;92.00
76172;DHT22;64929;51.178;4.138;2023-04-01T23:48:57;9.80;92.10
76172;DHT22;64929;51.178;4.138;2023-04-01T23:51:24;9.80;92.00
76172;DHT22;64929;51.178;4.138;2023-04-01T23:53:59;9.80;91.70
76172;DHT22;64929;51.178;4.138;2023-04-01T23:56:41;9.80;91.30
76172;DHT22;64929;51.178;4.138;2023-04-01T23:59:17;9.60;91.50
